CYQX

Gander International Airport

Gander, Canada
TAF CYQX 211739Z 2118/2218 26008KT P6SM BKN240 FM220500 23010KT P6SM SCT020 BKN140 FM221000 22008KT 5SM -SHRA BR OVC008 PROB30 2210/2215 2SM TSRA BR BKN008 OVC025CB FM221500 21015KT P6SM BKN015 OVC025 RMK NXT FCST BY 220000Z
Issued Valid From Valid To
Jul-21 @ 17:39 UTC
(5 hours ago)
Jul-21 @ 18:00 UTC
(5 hours ago)
Jul-22 @ 18:00 UTC
(in 19 hours)
Jul-21 @ 18:00 to Jul-22 @ 05:00
TAF CYQX 211739Z 2118/2218 26008KT P6SM BKN240
Wind Visibility Clouds
260° at 8 knots Greater than 6 miles
  • Broken at 24,000' AGL
From Jul-22 @ 05:00 to Jul-22 @ 10:00
FM220500 23010KT P6SM SCT020 BKN140
Wind Visibility Clouds
230° at 10 knots Greater than 6 miles
  • Scattered at 2,000' AGL
  • Broken at 14,000' AGL
Probable  (Probability 30%) Jul-22 @ 10:00 to Jul-22 @ 15:00
PROB30 2210/2215 2SM TSRA BR BKN008 OVC025CB
Visibility Clouds Conditions
2 miles
  • Broken at 800' AGL
  • Overcast at 2,500' AGL
  • Thunderstorm
  • Rain
  • Mist
From Jul-22 @ 10:00 to Jul-22 @ 15:00
FM221000 22008KT 5SM -SHRA BR OVC008
Wind Visibility Clouds Conditions
220° at 8 knots 5 miles
  • Overcast at 800' AGL
  • Light Rain
  • Mist
From Jul-22 @ 15:00 to Jul-22 @ 18:00
FM221500 21015KT P6SM BKN015 OVC025 RMK NXT FCST BY 220000Z
Wind Visibility Clouds
210° at 15 knots Greater than 6 miles
  • Broken at 1,500' AGL
  • Overcast at 2,500' AGL
TAF CYQX 211739Z 2118/2218 26008KT P6SM BKN240 FM220500 23010KT P6SM SCT020 BKN140 FM221000 22008KT 5SM -SHRA BR OVC008 PROB30 2210/2215 2SM TSRA BR BKN008 OVC025CB FM221500 21015KT P6SM BKN015 OVC025 RMK NXT FCST BY 220000Z
Issued Jul-21 @ 17:39 UTC
(5 hours ago)
Valid From Jul-21 @ 18:00 UTC
(5 hours ago)
Valid To Jul-22 @ 18:00 UTC
(in 19 hours)
Jul-21 @ 18:00 - Jul-22 @ 05:00
Wind Visibility
260° at 8 knots Greater than 6 miles
Clouds
  • Broken at 24,000' AGL
From Jul-22 @ 05:00 - Jul-22 @ 10:00
Wind Visibility
230° at 10 knots Greater than 6 miles
Clouds
  • Scattered at 2,000' AGL
  • Broken at 14,000' AGL
Probability 30% Probable Jul-22 @ 10:00 - Jul-22 @ 15:00
Clouds
  • Broken at 800' AGL
  • Overcast at 2,500' AGL
Conditions
  • Thunderstorm
  • Rain
  • Mist
From Jul-22 @ 10:00 - Jul-22 @ 15:00
Wind Visibility
220° at 8 knots 5 miles
Clouds
  • Overcast at 800' AGL
Conditions
  • Light Rain
  • Mist
From Jul-22 @ 15:00 - Jul-22 @ 18:00
Wind Visibility
210° at 15 knots Greater than 6 miles
Clouds
  • Broken at 1,500' AGL
  • Overcast at 2,500' AGL